This is the latest recevied weather packets stored in our database for station/object AC0MR. If no packets are shown the sender has not sent any weather packets the latest 10 day(s).
| Time | Temp. | Humidity | Pressure | Rain* | Wind** | Luminosity | Snow |
|---|---|---|---|---|---|---|---|
| 1777769119 | 13.33° C | 41% | 1014.8 hPa | 0 mm | - | 17 W/m² | - |
| 1777768519 | 13.89° C | 40% | 1014.8 hPa | 0 mm | - | 22 W/m² | - |
| 1777767919 | 13.89° C | 38% | 1014.9 hPa | 0 mm | - | 27 W/m² | - |
| 1777767319 | 14.44° C | 37% | 1015 hPa | 0 mm | - | 32 W/m² | - |
| 1777766718 | 14.44° C | 37% | 1015.1 hPa | 0 mm | - | 37 W/m² | - |
| 1777766118 | 15° C | 36% | 1015.1 hPa | 0 mm | - | 42 W/m² | - |
| 1777765519 | 15° C | 36% | 1015.1 hPa | 0 mm | - | 54 W/m² | - |
| 1777764919 | 15.56° C | 35% | 1015.3 hPa | 0 mm | - | 59 W/m² | - |
| 1777764318 | 15.56° C | 33% | 1015.5 hPa | 0 mm | - | 242 W/m² | - |
| 1777763718 | 16.11° C | 33% | 1015.6 hPa | 0 mm | - | 216 W/m² | - |
| 1777763119 | 16.11° C | 32% | 1015.7 hPa | 0 mm | - | 309 W/m² | - |
| 1777762519 | 16.11° C | 33% | 1015.8 hPa | 0 mm | - | 353 W/m² | - |
| 1777761919 | 16.11° C | 32% | 1015.8 hPa | 0 mm | - | 367 W/m² | - |
| 1777761319 | 16.67° C | 31% | 1015.8 hPa | 0 mm | - | 400 W/m² | - |
| 1777760718 | 16.67° C | 30% | 1016 hPa | 0 mm | - | 451 W/m² | - |
| 1777760118 | 16.67° C | 31% | 1016.2 hPa | 0 mm | - | 479 W/m² | - |
| 1777759518 | 16.67° C | 30% | 1016.1 hPa | 0 mm | - | 512 W/m² | - |
| 1777758918 | 16.67° C | 33% | 1016.4 hPa | 0 mm | - | 536 W/m² | - |
| 1777758319 | 16.67° C | 32% | 1016.1 hPa | 0 mm | - | 568 W/m² | - |
| 1777757718 | 16.67° C | 32% | 1016.3 hPa | 0 mm | - | 594 W/m² | - |
| 1777757118 | 16.67° C | 31% | 1016.3 hPa | 0 mm | - | 622 W/m² | - |
| 1777756518 | 16.67° C | 32% | 1016.6 hPa | 0 mm | - | 652 W/m² | - |
| 1777755918 | 16.67° C | 30% | 1016.6 hPa | 0 mm | - | 664 W/m² | - |
| 1777755318 | 16.67° C | 32% | 1016.9 hPa | 0 mm | - | 700 W/m² | - |
| 1777754718 | 16.67° C | 31% | 1016.9 hPa | 0 mm | - | 722 W/m² | - |
* Rain latest hour (hover to see other rain measurements)
** Current wind speed in m/s (hover to see current wind gust speed)